createdAt,value
2019-04-10T00:02:17.592Z,63.05
2019-04-10T00:04:45.940Z,63.27
2019-04-10T00:07:17.398Z,63.40
2019-04-10T00:09:45.351Z,63.12
2019-04-10T00:12:14.208Z,63.42
2019-04-10T00:14:43.076Z,63.72
2019-04-10T00:17:13.163Z,64.08
2019-04-10T00:19:41.427Z,63.74
2019-04-10T00:22:09.919Z,64.06
2019-04-10T00:24:38.393Z,63.90
2019-04-10T00:27:06.886Z,63.77
2019-04-10T00:29:36.313Z,64.07
2019-04-10T00:32:06.402Z,64.52
2019-04-10T00:34:34.583Z,64.56
2019-04-10T00:37:06.016Z,64.81
2019-04-10T00:39:34.876Z,65.07
2019-04-10T00:42:03.393Z,65.30
2019-04-10T00:44:32.784Z,65.41
2019-04-10T00:47:03.217Z,65.53
2019-04-10T00:49:31.528Z,65.10
2019-04-10T00:51:59.891Z,65.14
2019-04-10T00:54:28.385Z,64.57
2019-04-10T00:56:56.975Z,64.01
2019-04-10T00:59:26.396Z,63.73
2019-04-10T01:01:54.607Z,63.83
2019-04-10T01:04:24.587Z,64.10
2019-04-10T01:06:52.844Z,64.78
2019-04-10T01:09:21.543Z,64.76
2019-04-10T01:11:49.808Z,64.99
2019-04-10T01:14:18.275Z,65.42
2019-04-10T01:16:47.387Z,65.73
2019-04-10T01:19:15.757Z,65.97
2019-04-10T01:21:44.302Z,66.19
2019-04-10T01:24:13.166Z,65.78
2019-04-10T01:26:41.708Z,65.13
2019-04-10T01:29:11.757Z,65.87
2019-04-10T01:31:39.967Z,65.48
2019-04-10T01:34:09.363Z,65.62
2019-04-10T01:36:37.677Z,65.37
2019-04-10T01:39:08.754Z,65.40
2019-04-10T01:41:39.759Z,65.82
2019-04-10T01:44:08.240Z,66.14
2019-04-10T01:46:36.749Z,66.12
2019-04-10T01:49:05.314Z,66.48
2019-04-10T01:51:33.708Z,66.71
2019-04-10T01:54:02.704Z,66.82
2019-04-10T01:56:33.569Z,67.31
2019-04-10T01:59:01.437Z,66.96
2019-04-10T02:01:34.664Z,67.11
2019-04-10T02:04:03.281Z,67.38
2019-04-10T02:06:31.742Z,66.97
2019-04-10T02:09:00.432Z,67.43
2019-04-10T02:11:28.699Z,67.53
2019-04-10T02:13:58.205Z,67.29
2019-04-10T02:16:27.227Z,67.00
2019-04-10T02:18:57.615Z,67.17
2019-04-10T02:21:26.217Z,67.25
2019-04-10T02:23:54.721Z,67.27
2019-04-10T02:26:22.925Z,66.90
2019-04-10T02:28:51.409Z,67.19
2019-04-10T02:31:21.384Z,66.92
2019-04-10T02:33:51.738Z,66.39
2019-04-10T02:36:21.269Z,66.84
2019-04-10T02:39:01.887Z,66.96
2019-04-10T02:41:19.726Z,66.10
2019-04-10T02:43:48.436Z,66.21
2019-04-10T02:46:16.674Z,67.19
2019-04-10T02:48:47.619Z,67.61
2019-04-10T02:51:17.593Z,67.76
2019-04-10T02:53:48.041Z,67.75
2019-04-10T02:56:17.886Z,67.78
2019-04-10T02:58:47.090Z,67.70
2019-04-10T03:01:15.781Z,68.04
2019-04-10T03:03:44.696Z,68.57
2019-04-10T03:06:13.582Z,69.09
2019-04-10T03:08:58.970Z,68.51
2019-04-10T03:11:14.518Z,68.92
2019-04-10T03:13:45.005Z,69.23
2019-04-10T03:16:14.106Z,69.08
2019-04-10T03:18:43.107Z,69.06
2019-04-10T03:21:12.641Z,68.90
2019-04-10T03:23:41.990Z,68.77
2019-04-10T03:26:10.105Z,68.85
2019-04-10T03:28:38.898Z,68.28
2019-04-10T03:31:07.982Z,68.40
2019-04-10T03:33:52.245Z,69.13
2019-04-10T03:36:19.598Z,69.73
2019-04-10T03:38:57.765Z,69.74
2019-04-10T03:41:20.294Z,70.05
2019-04-10T03:43:48.504Z,69.93
2019-04-10T03:46:17.288Z,69.69
2019-04-10T03:48:45.561Z,69.42
2019-04-10T03:51:14.431Z,68.51
2019-04-10T03:53:43.033Z,68.35
2019-04-10T03:56:11.711Z,68.01
2019-04-10T03:58:39.923Z,68.34
2019-04-10T04:01:08.874Z,69.07
2019-04-10T04:03:37.153Z,69.23
2019-04-10T04:06:05.451Z,69.95
2019-04-10T04:08:35.283Z,69.85
2019-04-10T04:11:04.899Z,69.07
2019-04-10T04:13:33.349Z,68.34
2019-04-10T04:16:02.255Z,68.62
2019-04-10T04:18:30.723Z,69.43
2019-04-10T04:20:59.354Z,69.27
2019-04-10T04:23:27.878Z,69.63
2019-04-10T04:25:56.868Z,69.84
2019-04-10T04:28:25.764Z,69.57
2019-04-10T04:30:54.377Z,69.42
2019-04-10T04:33:23.241Z,69.39
2019-04-10T04:35:53.099Z,68.55
2019-04-10T04:38:21.680Z,67.86
2019-04-10T04:40:51.262Z,68.13
2019-04-10T04:43:21.664Z,68.52
2019-04-10T04:45:51.677Z,68.81
2019-04-10T04:48:20.166Z,69.55
2019-04-10T04:50:48.350Z,69.77
2019-04-10T04:53:18.398Z,69.99
2019-04-10T04:55:48.474Z,70.12
2019-04-10T04:58:16.857Z,70.18
2019-04-10T05:00:45.940Z,70.49
2019-04-10T05:03:14.347Z,70.23
2019-04-10T05:05:43.316Z,69.06
2019-04-10T05:08:13.208Z,69.82
2019-04-10T05:10:41.891Z,69.84
2019-04-10T05:13:10.391Z,69.85
2019-04-10T05:15:40.802Z,69.67
2019-04-10T05:18:10.379Z,69.90
2019-04-10T05:20:45.416Z,69.80
2019-04-10T05:23:08.836Z,69.46
2019-04-10T05:25:37.789Z,69.88
2019-04-10T05:28:06.310Z,69.71
2019-04-10T05:30:35.680Z,69.25
2019-04-10T05:33:04.209Z,69.69
2019-04-10T05:35:32.411Z,69.38
2019-04-10T05:38:01.068Z,68.72
2019-04-10T05:40:30.244Z,69.14
2019-04-10T05:42:59.503Z,68.68
2019-04-10T05:45:27.740Z,69.24
2019-04-10T05:47:56.761Z,68.56
2019-04-10T05:50:25.758Z,68.55
2019-04-10T05:52:55.895Z,68.46
2019-04-10T05:55:24.602Z,68.33
2019-04-10T05:57:53.164Z,67.96
2019-04-10T06:00:22.969Z,68.14
2019-04-10T06:02:52.185Z,67.71
2019-04-10T06:05:20.452Z,67.69
2019-04-10T06:07:49.619Z,67.59
2019-04-10T06:10:19.741Z,67.24
2019-04-10T06:12:48.779Z,66.87
2019-04-10T06:15:17.017Z,66.78
2019-04-10T06:17:45.228Z,66.25
2019-04-10T06:20:14.217Z,65.73
2019-04-10T06:22:44.326Z,65.24
2019-04-10T06:25:16.172Z,65.35
2019-04-10T06:27:45.026Z,64.66
2019-04-10T06:30:13.260Z,64.03
2019-04-10T06:32:41.456Z,64.07
2019-04-10T06:35:09.647Z,64.16
2019-04-10T06:37:38.053Z,64.14
2019-04-10T06:40:14.279Z,63.52
2019-04-10T06:42:46.090Z,63.47
2019-04-10T06:45:07.332Z,63.09
2019-04-10T06:47:36.155Z,62.42
2019-04-10T06:50:06.447Z,62.12
2019-04-10T06:52:34.715Z,61.32
2019-04-10T06:55:05.025Z,60.99
2019-04-10T06:57:46.886Z,60.60
2019-04-10T07:00:12.136Z,59.88
2019-04-10T07:02:38.704Z,59.31
2019-04-10T07:05:10.050Z,58.62
2019-04-10T07:07:47.489Z,57.74
2019-04-10T07:10:21.431Z,56.94
2019-04-10T07:12:37.840Z,55.76
2019-04-10T07:15:07.049Z,55.42
2019-04-10T07:17:40.665Z,55.49
2019-04-10T07:20:09.422Z,55.62
2019-04-10T07:22:42.822Z,55.09
2019-04-10T07:25:10.357Z,55.23
2019-04-10T07:27:40.168Z,55.15
2019-04-10T07:30:09.730Z,54.47
2019-04-10T07:32:41.290Z,54.73
2019-04-10T07:35:08.839Z,55.26
2019-04-10T07:37:38.810Z,55.70
2019-04-10T07:40:07.940Z,55.48
2019-04-10T07:42:40.289Z,55.22
2019-04-10T07:45:07.803Z,55.73
2019-04-10T07:47:37.992Z,54.21
2019-04-10T07:50:08.691Z,53.53
2019-04-10T07:52:37.338Z,53.75
2019-04-10T07:55:06.574Z,53.62
2019-04-10T07:57:34.875Z,53.30
2019-04-10T08:00:03.269Z,52.71
2019-04-10T08:02:31.730Z,52.65
2019-04-10T08:05:00.192Z,52.92
2019-04-10T08:07:31.729Z,52.65
2019-04-10T08:09:59.325Z,53.15
2019-04-10T08:12:37.641Z,52.81
2019-04-10T08:14:57.543Z,52.49
2019-04-10T08:17:26.258Z,52.25
2019-04-10T08:19:55.884Z,52.13
2019-04-10T08:22:24.091Z,51.34
2019-04-10T08:24:53.603Z,51.39
2019-04-10T08:27:22.077Z,51.28
2019-04-10T08:29:51.202Z,51.42
2019-04-10T08:32:21.594Z,51.36
2019-04-10T08:34:51.223Z,51.35
2019-04-10T08:37:20.629Z,49.90
2019-04-10T08:39:50.834Z,50.23
2019-04-10T08:42:18.963Z,49.23
2019-04-10T08:44:48.655Z,49.70
2019-04-10T08:47:17.291Z,48.47
2019-04-10T08:49:45.522Z,49.08
2019-04-10T08:52:14.874Z,48.78
2019-04-10T08:54:43.074Z,48.77
2019-04-10T08:57:12.250Z,48.69
2019-04-10T08:59:40.459Z,48.08
2019-04-10T09:02:09.457Z,48.08
2019-04-10T09:04:37.948Z,48.71
2019-04-10T09:07:06.845Z,48.71
2019-04-10T09:09:35.411Z,48.21
2019-04-10T09:12:03.877Z,48.60
2019-04-10T09:14:32.936Z,48.60
2019-04-10T09:17:02.975Z,47.54
2019-04-10T09:19:31.386Z,47.54
2019-04-10T09:22:01.249Z,46.92
2019-04-10T09:24:30.055Z,47.41
2019-04-10T09:26:58.374Z,48.29
2019-04-10T09:29:27.867Z,47.82
2019-04-10T09:31:56.415Z,47.09
2019-04-10T09:34:25.610Z,46.71
2019-04-10T09:36:54.524Z,46.45
2019-04-10T09:39:23.329Z,46.45
2019-04-10T09:41:52.349Z,45.54
2019-04-10T09:44:20.916Z,44.16
2019-04-10T09:46:51.638Z,45.06
2019-04-10T09:49:31.952Z,45.06
2019-04-10T09:51:50.345Z,45.08
2019-04-10T09:54:18.814Z,44.50
2019-04-10T09:56:47.012Z,44.50
2019-04-10T09:59:16.032Z,44.79
2019-04-10T10:01:44.514Z,43.82
2019-04-10T10:04:13.287Z,44.55
2019-04-10T10:06:41.735Z,45.28
2019-04-10T10:09:10.223Z,46.03
2019-04-10T10:11:38.715Z,46.54
2019-04-10T10:14:07.190Z,46.36
2019-04-10T10:16:35.898Z,47.64
2019-04-10T10:19:04.146Z,47.41
2019-04-10T10:21:32.488Z,46.16
2019-04-10T10:24:01.112Z,46.31
2019-04-10T10:26:32.122Z,45.34
2019-04-10T10:29:01.145Z,45.05
2019-04-10T10:31:30.556Z,43.38
2019-04-10T10:33:59.135Z,44.63
2019-04-10T10:36:36.648Z,45.38
2019-04-10T10:39:07.066Z,45.51
2019-04-10T10:41:29.919Z,45.51
2019-04-10T10:43:58.492Z,45.80
2019-04-10T10:46:27.251Z,45.26
2019-04-10T10:48:56.883Z,45.00
2019-04-10T10:51:25.149Z,45.00
2019-04-10T10:53:54.699Z,45.11
2019-04-10T10:56:23.132Z,44.62
2019-04-10T10:58:52.964Z,44.40
2019-04-10T11:01:24.067Z,44.24
2019-04-10T11:03:52.763Z,44.20
2019-04-10T11:06:21.157Z,44.34
2019-04-10T11:08:49.366Z,43.98
2019-04-10T11:11:17.683Z,44.23
2019-04-10T11:13:46.929Z,44.14
2019-04-10T11:16:15.171Z,44.13
2019-04-10T11:18:43.564Z,43.11
2019-04-10T11:21:12.740Z,43.80
2019-04-10T11:23:42.440Z,43.56
2019-04-10T11:26:11.425Z,42.50
2019-04-10T11:28:41.867Z,42.32
2019-04-10T11:31:11.056Z,42.11
2019-04-10T11:33:40.188Z,41.98
2019-04-10T11:36:09.889Z,41.97
2019-04-10T11:38:39.703Z,42.13
2019-04-10T11:41:08.073Z,41.19
2019-04-10T11:43:37.668Z,41.86
2019-04-10T11:46:07.813Z,42.35
2019-04-10T11:48:36.654Z,42.09
2019-04-10T11:51:06.742Z,41.70
2019-04-10T11:53:37.880Z,41.15
2019-04-10T11:56:05.799Z,41.89
2019-04-10T11:58:36.253Z,41.93
2019-04-10T12:01:08.239Z,41.82
2019-04-10T12:03:37.124Z,41.82
2019-04-10T12:06:06.462Z,40.84
2019-04-10T12:09:03.720Z,41.08
2019-04-10T12:11:13.677Z,41.18
2019-04-10T12:13:38.691Z,41.30
2019-04-10T12:16:07.172Z,41.27
2019-04-10T12:18:36.726Z,41.62
2019-04-10T12:21:05.558Z,41.91
2019-04-10T12:23:34.716Z,41.26
2019-04-10T12:26:03.851Z,41.28
2019-04-10T12:28:33.938Z,41.11
2019-04-10T12:31:02.288Z,41.19
2019-04-10T12:33:31.723Z,40.92
2019-04-10T12:36:00.401Z,40.86
2019-04-10T12:38:29.768Z,40.93
2019-04-10T12:40:59.019Z,41.14
2019-04-10T12:43:29.257Z,41.54
2019-04-10T12:45:57.459Z,41.18
2019-04-10T12:48:26.333Z,41.10
2019-04-10T12:50:55.121Z,39.80
2019-04-10T12:53:23.396Z,40.92
2019-04-10T12:55:53.549Z,41.19
2019-04-10T12:58:22.483Z,41.50
2019-04-10T13:00:52.146Z,41.56
2019-04-10T13:03:21.347Z,42.05
2019-04-10T13:05:51.475Z,42.08
2019-04-10T13:08:22.844Z,41.35
2019-04-10T13:10:50.286Z,41.49
2019-04-10T13:13:18.488Z,41.79
2019-04-10T13:15:47.639Z,41.54
2019-04-10T13:18:16.326Z,41.46
2019-04-10T13:20:44.546Z,41.46
2019-04-10T13:23:14.887Z,41.98
2019-04-10T13:25:43.875Z,41.26
2019-04-10T13:28:12.825Z,41.56
2019-04-10T13:30:48.869Z,41.65
2019-04-10T13:33:12.147Z,41.95
2019-04-10T13:35:40.409Z,41.79
2019-04-10T13:38:08.826Z,41.39
2019-04-10T13:40:37.517Z,41.27
2019-04-10T13:43:06.008Z,41.04
2019-04-10T13:45:35.333Z,40.96
2019-04-10T13:48:04.003Z,41.11
2019-04-10T13:50:32.761Z,41.18
2019-04-10T13:53:01.669Z,40.89
2019-04-10T13:55:30.530Z,41.20
2019-04-10T13:57:59.937Z,40.96
2019-04-10T14:00:33.617Z,41.03
2019-04-10T14:03:03.789Z,40.70
2019-04-10T14:05:33.896Z,41.14
2019-04-10T14:08:02.239Z,41.14
2019-04-10T14:10:31.322Z,41.19
2019-04-10T14:12:59.730Z,41.39
2019-04-10T14:15:30.383Z,41.29
2019-04-10T14:17:59.812Z,41.05
2019-04-10T14:20:29.003Z,40.85
2019-04-10T14:23:12.580Z,41.19
2019-04-10T14:26:00.723Z,41.49
2019-04-10T14:28:31.278Z,41.65
2019-04-10T14:31:02.053Z,41.71
2019-04-10T14:33:30.466Z,41.54
2019-04-10T14:35:58.631Z,41.15
2019-04-10T14:38:27.372Z,41.31
2019-04-10T14:40:56.276Z,41.37
2019-04-10T14:43:24.997Z,42.01
2019-04-10T14:45:54.059Z,41.41
2019-04-10T14:48:22.414Z,40.97
2019-04-10T14:50:51.507Z,41.25
2019-04-10T14:53:19.703Z,41.19
2019-04-10T14:55:47.893Z,40.98
2019-04-10T14:58:22.703Z,40.61
2019-04-10T15:00:50.575Z,40.33
2019-04-10T15:03:18.769Z,40.08
2019-04-10T15:05:51.449Z,40.77
2019-04-10T15:08:18.230Z,40.61
2019-04-10T15:10:46.416Z,41.00
2019-04-10T15:13:20.791Z,41.59
2019-04-10T15:15:46.162Z,41.92
2019-04-10T15:18:14.996Z,42.78
2019-04-10T15:20:43.233Z,43.47
2019-04-10T15:23:13.148Z,43.57
2019-04-10T15:25:41.642Z,43.12
2019-04-10T15:28:10.495Z,42.30
2019-04-10T15:30:39.040Z,42.35
2019-04-10T15:33:07.232Z,42.69
2019-04-10T15:35:35.437Z,42.52
2019-04-10T15:38:04.037Z,42.25
2019-04-10T15:40:32.341Z,41.92
2019-04-10T15:43:00.806Z,42.22
2019-04-10T15:45:30.105Z,42.77
2019-04-10T15:47:59.980Z,43.41
2019-04-10T15:50:28.444Z,43.97
2019-04-10T15:52:57.963Z,44.43
2019-04-10T15:55:27.853Z,44.83
2019-04-10T15:57:59.789Z,44.89
2019-04-10T16:00:27.478Z,44.77
2019-04-10T16:02:57.251Z,44.77
2019-04-10T16:05:25.981Z,44.00
2019-04-10T16:07:55.323Z,44.00
2019-04-10T16:10:28.868Z,43.74
2019-04-10T16:13:01.884Z,43.20
2019-04-10T16:15:31.724Z,43.51
2019-04-10T16:18:01.737Z,44.26
2019-04-10T16:20:34.057Z,44.69
2019-04-10T16:23:19.646Z,44.96
2019-04-10T16:25:52.495Z,45.40
2019-04-10T16:28:20.814Z,45.19
2019-04-10T16:30:50.707Z,45.05
2019-04-10T16:33:19.024Z,45.22
2019-04-10T16:35:48.302Z,45.37
2019-04-10T16:38:16.533Z,46.20
2019-04-10T16:40:45.891Z,46.91
2019-04-10T16:43:14.271Z,46.78
2019-04-10T16:45:42.936Z,47.34
2019-04-10T16:48:11.134Z,47.72
2019-04-10T16:50:39.394Z,47.63
2019-04-10T16:53:07.629Z,48.12
2019-04-10T16:55:36.640Z,48.31
2019-04-10T16:58:04.907Z,48.24
2019-04-10T17:00:33.261Z,48.04
2019-04-10T17:03:01.918Z,47.51
2019-04-10T17:05:32.047Z,47.06
2019-04-10T17:08:00.430Z,47.13
2019-04-10T17:10:29.456Z,47.74
2019-04-10T17:12:58.244Z,48.48
2019-04-10T17:15:26.714Z,49.10
2019-04-10T17:17:54.990Z,49.22
2019-04-10T17:20:24.451Z,49.30
2019-04-10T17:22:52.754Z,49.53
2019-04-10T17:25:21.957Z,49.70
2019-04-10T17:27:50.348Z,50.20
2019-04-10T17:30:19.709Z,50.26
2019-04-10T17:32:48.652Z,50.32
2019-04-10T17:35:17.267Z,50.65
2019-04-10T17:37:45.719Z,51.05
2019-04-10T17:40:27.405Z,51.00
2019-04-10T17:42:46.447Z,50.93
2019-04-10T17:45:14.639Z,50.93
2019-04-10T17:47:42.957Z,51.05
2019-04-10T17:50:14.009Z,51.08
2019-04-10T17:52:42.957Z,51.11
2019-04-10T17:55:13.461Z,51.04
2019-04-10T17:57:44.510Z,51.04
2019-04-10T18:00:23.872Z,51.03
2019-04-10T18:02:52.109Z,51.36
2019-04-10T18:05:20.484Z,51.87
2019-04-10T18:07:48.684Z,51.67
2019-04-10T18:10:16.886Z,51.89
2019-04-10T18:12:46.067Z,52.44
2019-04-10T18:15:15.625Z,52.63
2019-04-10T18:17:44.048Z,52.62
2019-04-10T18:20:12.524Z,52.49
2019-04-10T18:22:41.052Z,52.68
2019-04-10T18:25:09.733Z,52.61
2019-04-10T18:27:38.654Z,53.20
2019-04-10T18:30:07.883Z,53.20
2019-04-10T18:32:36.030Z,53.31
2019-04-10T18:35:06.790Z,53.42
2019-04-10T18:37:35.466Z,53.38
2019-04-10T18:40:05.290Z,53.63
2019-04-10T18:42:33.458Z,53.74
2019-04-10T18:45:01.998Z,53.87
2019-04-10T18:47:32.399Z,54.12
2019-04-10T18:50:01.160Z,54.36
2019-04-10T18:52:30.341Z,53.99
2019-04-10T18:54:58.573Z,54.21
2019-04-10T18:57:26.763Z,54.21
2019-04-10T18:59:56.732Z,54.04
2019-04-10T19:02:29.611Z,54.34
2019-04-10T19:05:13.982Z,54.32
2019-04-10T19:07:42.808Z,54.21
2019-04-10T19:10:11.517Z,54.18
2019-04-10T19:12:41.167Z,54.57
2019-04-10T19:15:09.355Z,54.51
2019-04-10T19:17:37.557Z,54.77
2019-04-10T19:20:07.707Z,54.44
2019-04-10T19:22:36.954Z,54.42
2019-04-10T19:25:06.070Z,54.52
2019-04-10T19:27:34.334Z,54.45
2019-04-10T19:30:07.424Z,54.51
2019-04-10T19:32:37.509Z,54.63
2019-04-10T19:35:06.788Z,55.12
2019-04-10T19:37:36.769Z,55.13
2019-04-10T19:40:07.211Z,55.12
2019-04-10T19:42:35.674Z,55.08
2019-04-10T19:45:05.720Z,55.38
2019-04-10T19:47:34.715Z,54.59
2019-04-10T19:50:03.490Z,54.59
2019-04-10T19:52:32.784Z,54.91
2019-04-10T19:55:01.038Z,54.91
2019-04-10T19:57:29.249Z,54.97
2019-04-10T19:59:57.869Z,54.90
2019-04-10T20:02:26.718Z,54.91
2019-04-10T20:04:54.888Z,55.04
2019-04-10T20:07:23.353Z,54.92
2019-04-10T20:09:52.706Z,55.35
2019-04-10T20:12:20.927Z,55.55
2019-04-10T20:14:49.528Z,55.55
2019-04-10T20:17:17.753Z,55.74
2019-04-10T20:19:46.742Z,55.67
2019-04-10T20:22:14.969Z,55.76
2019-04-10T20:24:43.420Z,55.75
2019-04-10T20:27:11.976Z,55.48
2019-04-10T20:29:41.316Z,55.65
2019-04-10T20:32:11.000Z,56.03
2019-04-10T20:34:40.686Z,56.03
2019-04-10T20:37:10.308Z,56.23
2019-04-10T20:39:39.264Z,56.76
2019-04-10T20:42:07.795Z,57.56
2019-04-10T20:44:36.591Z,58.49
2019-04-10T20:47:04.814Z,58.38
2019-04-10T20:49:34.269Z,58.84
2019-04-10T20:52:02.607Z,59.26
2019-04-10T20:54:31.321Z,60.14
2019-04-10T20:56:59.591Z,60.14
2019-04-10T20:59:28.612Z,59.98
2019-04-10T21:01:57.834Z,60.15
2019-04-10T21:04:26.091Z,60.41
2019-04-10T21:06:54.515Z,60.98
2019-04-10T21:09:24.146Z,60.98
2019-04-10T21:12:03.021Z,61.82
2019-04-10T21:14:23.302Z,61.51
2019-04-10T21:16:51.919Z,62.39
2019-04-10T21:19:21.704Z,62.39
2019-04-10T21:21:51.064Z,61.61
2019-04-10T21:24:19.545Z,61.61
2019-04-10T21:26:48.524Z,61.55
2019-04-10T21:29:18.663Z,62.18
2019-04-10T21:31:52.324Z,61.93
2019-04-10T21:34:26.212Z,61.97
2019-04-10T21:36:54.494Z,61.97
2019-04-10T21:39:22.702Z,62.38
2019-04-10T21:41:50.890Z,63.00
2019-04-10T21:44:20.369Z,62.74
2019-04-10T21:46:48.682Z,63.20
2019-04-10T21:49:17.159Z,63.25
2019-04-10T21:51:45.611Z,63.28
2019-04-10T21:54:14.092Z,63.08
2019-04-10T21:56:43.126Z,63.30
2019-04-10T21:59:11.362Z,63.12
2019-04-10T22:01:40.264Z,63.50
2019-04-10T22:04:08.427Z,63.50
2019-04-10T22:06:39.753Z,62.96
2019-04-10T22:09:12.902Z,63.58
2019-04-10T22:11:46.175Z,63.70
2019-04-10T22:14:15.098Z,64.22
2019-04-10T22:16:44.343Z,63.60
2019-04-10T22:19:12.979Z,63.60
2019-04-10T22:21:41.957Z,62.70
2019-04-10T22:24:10.166Z,63.75
2019-04-10T22:26:38.359Z,63.90
2019-04-10T22:29:07.636Z,64.48
2019-04-10T22:31:37.342Z,64.81
2019-04-10T22:34:05.579Z,64.40
2019-04-10T22:36:33.762Z,64.67
2019-04-10T22:39:02.650Z,64.49
2019-04-10T22:41:33.521Z,64.78
2019-04-10T22:44:01.196Z,64.87
2019-04-10T22:46:29.928Z,65.17
2019-04-10T22:48:58.129Z,65.49
2019-04-10T22:51:27.043Z,65.71
2019-04-10T22:53:55.631Z,65.31
2019-04-10T22:56:25.436Z,65.56
2019-04-10T22:58:53.633Z,65.33
2019-04-10T23:01:22.817Z,65.53
2019-04-10T23:03:51.021Z,65.32
2019-04-10T23:06:19.247Z,64.15
2019-04-10T23:08:47.567Z,63.81
2019-04-10T23:11:15.715Z,63.17
2019-04-10T23:13:43.923Z,62.10
2019-04-10T23:16:14.480Z,61.91
2019-04-10T23:18:42.058Z,61.91
2019-04-10T23:21:11.012Z,61.78
2019-04-10T23:23:39.229Z,61.71
2019-04-10T23:26:07.431Z,61.48
2019-04-10T23:28:35.805Z,61.48
2019-04-10T23:31:05.597Z,61.69
2019-04-10T23:33:34.535Z,61.66
2019-04-10T23:36:02.791Z,61.53
2019-04-10T23:38:31.246Z,61.53
2019-04-10T23:40:59.489Z,61.56
2019-04-10T23:43:27.690Z,61.56
2019-04-10T23:45:55.893Z,61.64
2019-04-10T23:48:24.610Z,61.65
2019-04-10T23:50:52.885Z,61.82
2019-04-10T23:53:22.725Z,62.02
2019-04-10T23:55:50.922Z,61.99
2019-04-10T23:58:19.928Z,61.94
